sensor_id;sensor_type;location;lat;lon;timestamp;P1;durP1;ratioP1;P2;durP2;ratioP2
9409;SDS011;4744;52.576;13.568;2022-11-04T00:02:02;6.95;;;5.70;;
9409;SDS011;4744;52.576;13.568;2022-11-04T00:04:29;6.20;;;4.68;;
9409;SDS011;4744;52.576;13.568;2022-11-04T00:06:58;6.13;;;4.88;;
9409;SDS011;4744;52.576;13.568;2022-11-04T00:09:25;5.25;;;4.75;;
9409;SDS011;4744;52.576;13.568;2022-11-04T00:11:54;6.10;;;5.00;;
9409;SDS011;4744;52.576;13.568;2022-11-04T00:14:38;5.82;;;5.10;;
9409;SDS011;4744;52.576;13.568;2022-11-04T00:17:07;5.38;;;4.82;;
9409;SDS011;4744;52.576;13.568;2022-11-04T00:19:46;6.97;;;4.88;;
9409;SDS011;4744;52.576;13.568;2022-11-04T00:22:33;5.82;;;5.22;;
9409;SDS011;4744;52.576;13.568;2022-11-04T00:25:17;8.40;;;5.80;;
9409;SDS011;4744;52.576;13.568;2022-11-04T00:28:03;6.82;;;5.55;;
9409;SDS011;4744;52.576;13.568;2022-11-04T00:30:51;9.18;;;6.20;;
9409;SDS011;4744;52.576;13.568;2022-11-04T00:33:18;9.43;;;6.13;;
9409;SDS011;4744;52.576;13.568;2022-11-04T00:35:50;8.93;;;6.50;;
9409;SDS011;4744;52.576;13.568;2022-11-04T00:38:20;9.70;;;5.95;;
9409;SDS011;4744;52.576;13.568;2022-11-04T00:40:47;9.65;;;6.32;;
9409;SDS011;4744;52.576;13.568;2022-11-04T00:43:14;7.68;;;6.20;;
9409;SDS011;4744;52.576;13.568;2022-11-04T00:45:41;7.85;;;6.05;;
9409;SDS011;4744;52.576;13.568;2022-11-04T00:48:08;7.53;;;5.75;;
9409;SDS011;4744;52.576;13.568;2022-11-04T00:50:36;6.47;;;5.80;;
9409;SDS011;4744;52.576;13.568;2022-11-04T00:53:03;6.80;;;5.68;;
9409;SDS011;4744;52.576;13.568;2022-11-04T00:55:31;7.03;;;5.65;;
9409;SDS011;4744;52.576;13.568;2022-11-04T00:57:58;7.30;;;5.40;;
9409;SDS011;4744;52.576;13.568;2022-11-04T01:00:25;6.65;;;5.60;;
9409;SDS011;4744;52.576;13.568;2022-11-04T01:02:54;7.97;;;5.93;;
9409;SDS011;4744;52.576;13.568;2022-11-04T01:05:21;8.50;;;6.18;;
9409;SDS011;4744;52.576;13.568;2022-11-04T01:07:48;7.05;;;6.35;;
9409;SDS011;4744;52.576;13.568;2022-11-04T01:10:15;7.78;;;5.82;;
9409;SDS011;4744;52.576;13.568;2022-11-04T01:12:43;10.13;;;6.93;;
9409;SDS011;4744;52.576;13.568;2022-11-04T01:15:10;9.68;;;6.85;;
9409;SDS011;4744;52.576;13.568;2022-11-04T01:17:37;8.60;;;6.53;;
9409;SDS011;4744;52.576;13.568;2022-11-04T01:20:04;7.35;;;6.25;;
9409;SDS011;4744;52.576;13.568;2022-11-04T01:22:31;7.05;;;5.78;;
9409;SDS011;4744;52.576;13.568;2022-11-04T01:24:58;9.05;;;7.13;;
9409;SDS011;4744;52.576;13.568;2022-11-04T01:27:24;9.25;;;6.40;;
9409;SDS011;4744;52.576;13.568;2022-11-04T01:29:53;9.77;;;6.85;;
9409;SDS011;4744;52.576;13.568;2022-11-04T01:32:20;9.18;;;6.20;;
9409;SDS011;4744;52.576;13.568;2022-11-04T01:34:47;7.53;;;6.00;;
9409;SDS011;4744;52.576;13.568;2022-11-04T01:37:14;10.52;;;6.72;;
9409;SDS011;4744;52.576;13.568;2022-11-04T01:39:40;12.30;;;7.53;;
9409;SDS011;4744;52.576;13.568;2022-11-04T01:42:11;11.18;;;7.10;;
9409;SDS011;4744;52.576;13.568;2022-11-04T01:44:46;10.95;;;7.38;;
9409;SDS011;4744;52.576;13.568;2022-11-04T01:47:17;10.38;;;7.05;;
9409;SDS011;4744;52.576;13.568;2022-11-04T01:49:46;10.35;;;7.00;;
9409;SDS011;4744;52.576;13.568;2022-11-04T01:52:17;11.93;;;7.00;;
9409;SDS011;4744;52.576;13.568;2022-11-04T01:54:48;10.82;;;7.47;;
9409;SDS011;4744;52.576;13.568;2022-11-04T01:57:18;8.68;;;7.30;;
9409;SDS011;4744;52.576;13.568;2022-11-04T01:59:48;10.98;;;7.00;;
9409;SDS011;4744;52.576;13.568;2022-11-04T02:02:17;14.95;;;7.80;;
9409;SDS011;4744;52.576;13.568;2022-11-04T02:04:44;8.80;;;7.35;;
9409;SDS011;4744;52.576;13.568;2022-11-04T02:07:11;9.50;;;7.75;;
9409;SDS011;4744;52.576;13.568;2022-11-04T02:09:38;10.00;;;6.95;;
9409;SDS011;4744;52.576;13.568;2022-11-04T02:12:06;10.80;;;7.18;;
9409;SDS011;4744;52.576;13.568;2022-11-04T02:14:51;7.72;;;6.72;;
9409;SDS011;4744;52.576;13.568;2022-11-04T02:17:28;10.48;;;7.30;;
9409;SDS011;4744;52.576;13.568;2022-11-04T02:20:12;8.35;;;7.00;;
9409;SDS011;4744;52.576;13.568;2022-11-04T02:23:05;9.95;;;7.88;;
9409;SDS011;4744;52.576;13.568;2022-11-04T02:26:12;10.48;;;7.47;;
9409;SDS011;4744;52.576;13.568;2022-11-04T02:29:16;8.70;;;7.10;;
9409;SDS011;4744;52.576;13.568;2022-11-04T02:32:01;8.05;;;6.90;;
9409;SDS011;4744;52.576;13.568;2022-11-04T02:34:37;8.48;;;7.20;;
9409;SDS011;4744;52.576;13.568;2022-11-04T02:37:11;8.57;;;7.28;;
9409;SDS011;4744;52.576;13.568;2022-11-04T02:39:48;10.35;;;7.65;;
9409;SDS011;4744;52.576;13.568;2022-11-04T02:42:21;11.68;;;7.32;;
9409;SDS011;4744;52.576;13.568;2022-11-04T02:44:56;11.77;;;7.38;;
9409;SDS011;4744;52.576;13.568;2022-11-04T02:47:28;10.15;;;7.35;;
9409;SDS011;4744;52.576;13.568;2022-11-04T02:49:59;13.48;;;8.35;;
9409;SDS011;4744;52.576;13.568;2022-11-04T02:52:32;10.88;;;8.00;;
9409;SDS011;4744;52.576;13.568;2022-11-04T02:55:06;13.07;;;7.80;;
9409;SDS011;4744;52.576;13.568;2022-11-04T02:57:41;9.95;;;7.57;;
9409;SDS011;4744;52.576;13.568;2022-11-04T03:00:13;10.02;;;7.70;;
9409;SDS011;4744;52.576;13.568;2022-11-04T03:02:44;10.88;;;8.25;;
9409;SDS011;4744;52.576;13.568;2022-11-04T03:05:16;11.05;;;7.78;;
9409;SDS011;4744;52.576;13.568;2022-11-04T03:07:47;8.98;;;7.38;;
9409;SDS011;4744;52.576;13.568;2022-11-04T03:10:17;10.00;;;8.30;;
9409;SDS011;4744;52.576;13.568;2022-11-04T03:12:50;10.48;;;7.85;;
9409;SDS011;4744;52.576;13.568;2022-11-04T03:15:26;10.75;;;7.18;;
9409;SDS011;4744;52.576;13.568;2022-11-04T03:17:58;9.63;;;7.72;;
9409;SDS011;4744;52.576;13.568;2022-11-04T03:20:29;7.65;;;6.78;;
9409;SDS011;4744;52.576;13.568;2022-11-04T03:22:57;11.48;;;8.43;;
9409;SDS011;4744;52.576;13.568;2022-11-04T03:25:25;11.27;;;8.43;;
9409;SDS011;4744;52.576;13.568;2022-11-04T03:27:59;11.00;;;8.00;;
9409;SDS011;4744;52.576;13.568;2022-11-04T03:30:34;14.00;;;8.43;;
9409;SDS011;4744;52.576;13.568;2022-11-04T03:33:05;12.50;;;8.57;;
9409;SDS011;4744;52.576;13.568;2022-11-04T03:35:37;11.30;;;8.05;;
9409;SDS011;4744;52.576;13.568;2022-11-04T03:38:04;10.88;;;8.48;;
9409;SDS011;4744;52.576;13.568;2022-11-04T03:40:31;9.35;;;8.38;;
9409;SDS011;4744;52.576;13.568;2022-11-04T03:42:59;11.13;;;8.30;;
9409;SDS011;4744;52.576;13.568;2022-11-04T03:45:28;9.88;;;7.93;;
9409;SDS011;4744;52.576;13.568;2022-11-04T03:47:57;9.95;;;7.75;;
9409;SDS011;4744;52.576;13.568;2022-11-04T03:50:26;9.95;;;8.15;;
9409;SDS011;4744;52.576;13.568;2022-11-04T03:52:54;10.98;;;8.05;;
9409;SDS011;4744;52.576;13.568;2022-11-04T03:55:23;10.75;;;8.50;;
9409;SDS011;4744;52.576;13.568;2022-11-04T03:57:55;10.98;;;8.38;;
9409;SDS011;4744;52.576;13.568;2022-11-04T04:00:28;9.18;;;7.70;;
9409;SDS011;4744;52.576;13.568;2022-11-04T04:03:06;12.15;;;8.88;;
9409;SDS011;4744;52.576;13.568;2022-11-04T04:05:36;8.60;;;7.70;;
9409;SDS011;4744;52.576;13.568;2022-11-04T04:08:11;10.00;;;7.75;;
9409;SDS011;4744;52.576;13.568;2022-11-04T04:10:47;8.68;;;7.65;;
9409;SDS011;4744;52.576;13.568;2022-11-04T04:13:24;9.43;;;7.88;;
9409;SDS011;4744;52.576;13.568;2022-11-04T04:16:03;9.55;;;7.18;;
9409;SDS011;4744;52.576;13.568;2022-11-04T04:18:37;9.82;;;7.97;;
9409;SDS011;4744;52.576;13.568;2022-11-04T04:21:08;9.35;;;7.97;;
9409;SDS011;4744;52.576;13.568;2022-11-04T04:23:39;11.95;;;8.82;;
9409;SDS011;4744;52.576;13.568;2022-11-04T04:26:25;9.88;;;8.57;;
9409;SDS011;4744;52.576;13.568;2022-11-04T04:29:11;11.52;;;8.57;;
9409;SDS011;4744;52.576;13.568;2022-11-04T04:31:38;11.10;;;8.50;;
9409;SDS011;4744;52.576;13.568;2022-11-04T04:34:18;9.15;;;8.05;;
9409;SDS011;4744;52.576;13.568;2022-11-04T04:36:48;11.77;;;9.02;;
9409;SDS011;4744;52.576;13.568;2022-11-04T04:39:19;12.85;;;8.38;;
9409;SDS011;4744;52.576;13.568;2022-11-04T04:42:06;11.75;;;8.95;;
9409;SDS011;4744;52.576;13.568;2022-11-04T04:44:51;12.10;;;8.57;;
9409;SDS011;4744;52.576;13.568;2022-11-04T04:47:40;10.73;;;8.63;;
9409;SDS011;4744;52.576;13.568;2022-11-04T04:50:10;11.50;;;8.15;;
9409;SDS011;4744;52.576;13.568;2022-11-04T04:52:40;10.43;;;8.55;;
9409;SDS011;4744;52.576;13.568;2022-11-04T04:55:09;10.75;;;8.77;;
9409;SDS011;4744;52.576;13.568;2022-11-04T04:57:36;10.77;;;8.73;;
9409;SDS011;4744;52.576;13.568;2022-11-04T05:00:04;11.35;;;9.35;;
9409;SDS011;4744;52.576;13.568;2022-11-04T05:02:32;11.70;;;8.80;;
9409;SDS011;4744;52.576;13.568;2022-11-04T05:04:59;11.07;;;8.85;;
9409;SDS011;4744;52.576;13.568;2022-11-04T05:07:28;13.68;;;9.52;;
9409;SDS011;4744;52.576;13.568;2022-11-04T05:09:55;14.07;;;9.73;;
9409;SDS011;4744;52.576;13.568;2022-11-04T05:12:21;13.07;;;9.02;;
9409;SDS011;4744;52.576;13.568;2022-11-04T05:14:48;11.45;;;7.97;;
9409;SDS011;4744;52.576;13.568;2022-11-04T05:17:15;11.32;;;8.32;;
9409;SDS011;4744;52.576;13.568;2022-11-04T05:19:42;9.50;;;8.32;;
9409;SDS011;4744;52.576;13.568;2022-11-04T05:22:09;10.45;;;8.68;;
9409;SDS011;4744;52.576;13.568;2022-11-04T05:24:37;10.13;;;8.55;;
9409;SDS011;4744;52.576;13.568;2022-11-04T05:27:04;10.93;;;8.10;;
9409;SDS011;4744;52.576;13.568;2022-11-04T05:29:30;8.77;;;7.88;;
9409;SDS011;4744;52.576;13.568;2022-11-04T05:31:57;10.00;;;8.63;;
9409;SDS011;4744;52.576;13.568;2022-11-04T05:34:24;11.65;;;9.00;;
9409;SDS011;4744;52.576;13.568;2022-11-04T05:36:51;9.20;;;7.97;;
9409;SDS011;4744;52.576;13.568;2022-11-04T05:39:18;11.27;;;8.60;;
9409;SDS011;4744;52.576;13.568;2022-11-04T05:41:46;11.07;;;8.70;;
9409;SDS011;4744;52.576;13.568;2022-11-04T05:44:13;11.30;;;9.30;;
9409;SDS011;4744;52.576;13.568;2022-11-04T05:46:39;14.70;;;10.18;;
9409;SDS011;4744;52.576;13.568;2022-11-04T05:49:07;11.80;;;9.30;;
9409;SDS011;4744;52.576;13.568;2022-11-04T05:51:34;9.40;;;8.45;;
9409;SDS011;4744;52.576;13.568;2022-11-04T05:54:01;10.13;;;8.52;;
9409;SDS011;4744;52.576;13.568;2022-11-04T05:56:28;9.98;;;8.38;;
9409;SDS011;4744;52.576;13.568;2022-11-04T05:58:56;11.05;;;8.52;;
9409;SDS011;4744;52.576;13.568;2022-11-04T06:01:25;11.35;;;8.40;;
9409;SDS011;4744;52.576;13.568;2022-11-04T06:03:54;10.05;;;8.35;;
9409;SDS011;4744;52.576;13.568;2022-11-04T06:06:21;10.25;;;8.82;;
9409;SDS011;4744;52.576;13.568;2022-11-04T06:08:49;8.88;;;7.97;;
9409;SDS011;4744;52.576;13.568;2022-11-04T06:11:17;10.70;;;8.20;;
9409;SDS011;4744;52.576;13.568;2022-11-04T06:13:45;10.45;;;8.73;;
9409;SDS011;4744;52.576;13.568;2022-11-04T06:16:13;8.80;;;7.90;;
9409;SDS011;4744;52.576;13.568;2022-11-04T06:18:40;9.30;;;7.65;;
9409;SDS011;4744;52.576;13.568;2022-11-04T06:21:08;9.02;;;7.93;;
9409;SDS011;4744;52.576;13.568;2022-11-04T06:23:49;11.05;;;9.15;;
9409;SDS011;4744;52.576;13.568;2022-11-04T06:26:16;12.10;;;9.80;;
9409;SDS011;4744;52.576;13.568;2022-11-04T06:28:43;12.27;;;9.80;;
9409;SDS011;4744;52.576;13.568;2022-11-04T06:31:11;12.40;;;10.10;;
9409;SDS011;4744;52.576;13.568;2022-11-04T06:33:40;10.68;;;8.88;;
9409;SDS011;4744;52.576;13.568;2022-11-04T06:36:09;11.30;;;9.15;;
9409;SDS011;4744;52.576;13.568;2022-11-04T06:38:37;13.00;;;9.48;;
9409;SDS011;4744;52.576;13.568;2022-11-04T06:41:04;11.48;;;9.38;;
9409;SDS011;4744;52.576;13.568;2022-11-04T06:43:32;11.65;;;8.82;;
9409;SDS011;4744;52.576;13.568;2022-11-04T06:46:00;11.68;;;9.32;;
9409;SDS011;4744;52.576;13.568;2022-11-04T06:48:27;11.23;;;9.40;;
9409;SDS011;4744;52.576;13.568;2022-11-04T06:50:56;10.48;;;9.38;;
9409;SDS011;4744;52.576;13.568;2022-11-04T06:53:23;11.30;;;9.68;;
9409;SDS011;4744;52.576;13.568;2022-11-04T06:55:51;10.05;;;8.32;;
9409;SDS011;4744;52.576;13.568;2022-11-04T06:58:18;9.95;;;8.90;;
9409;SDS011;4744;52.576;13.568;2022-11-04T07:00:49;9.15;;;8.20;;
9409;SDS011;4744;52.576;13.568;2022-11-04T07:03:17;9.15;;;8.25;;
9409;SDS011;4744;52.576;13.568;2022-11-04T07:05:44;9.68;;;8.00;;
9409;SDS011;4744;52.576;13.568;2022-11-04T07:08:12;9.23;;;8.27;;
9409;SDS011;4744;52.576;13.568;2022-11-04T07:10:38;9.13;;;8.18;;
9409;SDS011;4744;52.576;13.568;2022-11-04T07:13:06;8.98;;;8.07;;
9409;SDS011;4744;52.576;13.568;2022-11-04T07:15:32;10.88;;;8.35;;
9409;SDS011;4744;52.576;13.568;2022-11-04T07:18:00;9.15;;;7.85;;
9409;SDS011;4744;52.576;13.568;2022-11-04T07:20:26;13.82;;;10.23;;
9409;SDS011;4744;52.576;13.568;2022-11-04T07:22:53;10.13;;;8.63;;
9409;SDS011;4744;52.576;13.568;2022-11-04T07:25:21;10.35;;;9.00;;
9409;SDS011;4744;52.576;13.568;2022-11-04T07:27:48;12.15;;;9.32;;
9409;SDS011;4744;52.576;13.568;2022-11-04T07:30:15;12.85;;;8.68;;
9409;SDS011;4744;52.576;13.568;2022-11-04T07:32:44;10.48;;;8.88;;
9409;SDS011;4744;52.576;13.568;2022-11-04T07:35:11;10.35;;;8.65;;
9409;SDS011;4744;52.576;13.568;2022-11-04T07:37:38;8.85;;;7.95;;
9409;SDS011;4744;52.576;13.568;2022-11-04T07:40:05;10.35;;;9.05;;
9409;SDS011;4744;52.576;13.568;2022-11-04T07:42:34;10.57;;;7.93;;
9409;SDS011;4744;52.576;13.568;2022-11-04T07:45:01;11.32;;;8.52;;
9409;SDS011;4744;52.576;13.568;2022-11-04T07:47:28;9.48;;;8.50;;
9409;SDS011;4744;52.576;13.568;2022-11-04T07:49:55;11.65;;;9.70;;
9409;SDS011;4744;52.576;13.568;2022-11-04T07:52:22;10.65;;;9.30;;
9409;SDS011;4744;52.576;13.568;2022-11-04T07:54:50;10.15;;;9.15;;
9409;SDS011;4744;52.576;13.568;2022-11-04T07:57:16;9.75;;;8.75;;
9409;SDS011;4744;52.576;13.568;2022-11-04T07:59:44;10.13;;;9.07;;
9409;SDS011;4744;52.576;13.568;2022-11-04T08:02:11;12.32;;;10.07;;
9409;SDS011;4744;52.576;13.568;2022-11-04T08:04:38;11.48;;;9.95;;
9409;SDS011;4744;52.576;13.568;2022-11-04T08:07:06;11.07;;;9.55;;
9409;SDS011;4744;52.576;13.568;2022-11-04T08:09:34;10.65;;;9.45;;
9409;SDS011;4744;52.576;13.568;2022-11-04T08:12:01;10.63;;;9.48;;
9409;SDS011;4744;52.576;13.568;2022-11-04T08:14:29;9.93;;;8.45;;
9409;SDS011;4744;52.576;13.568;2022-11-04T08:16:57;12.10;;;9.90;;
9409;SDS011;4744;52.576;13.568;2022-11-04T08:19:24;15.90;;;10.52;;
9409;SDS011;4744;52.576;13.568;2022-11-04T08:21:51;10.15;;;9.15;;
9409;SDS011;4744;52.576;13.568;2022-11-04T08:24:18;11.70;;;10.50;;
9409;SDS011;4744;52.576;13.568;2022-11-04T08:26:45;13.07;;;10.02;;
9409;SDS011;4744;52.576;13.568;2022-11-04T08:29:12;13.45;;;12.05;;
9409;SDS011;4744;52.576;13.568;2022-11-04T08:31:38;10.98;;;9.95;;
9409;SDS011;4744;52.576;13.568;2022-11-04T08:34:07;12.70;;;11.15;;
9409;SDS011;4744;52.576;13.568;2022-11-04T08:36:35;11.45;;;10.23;;
9409;SDS011;4744;52.576;13.568;2022-11-04T08:39:05;12.38;;;11.07;;
9409;SDS011;4744;52.576;13.568;2022-11-04T08:41:33;12.50;;;11.20;;
9409;SDS011;4744;52.576;13.568;2022-11-04T08:44:01;12.20;;;10.90;;
9409;SDS011;4744;52.576;13.568;2022-11-04T08:46:30;12.98;;;11.25;;
9409;SDS011;4744;52.576;13.568;2022-11-04T08:48:58;12.63;;;10.20;;
9409;SDS011;4744;52.576;13.568;2022-11-04T08:51:27;12.50;;;11.20;;
9409;SDS011;4744;52.576;13.568;2022-11-04T08:53:54;14.50;;;12.43;;
9409;SDS011;4744;52.576;13.568;2022-11-04T08:56:22;14.10;;;12.68;;
9409;SDS011;4744;52.576;13.568;2022-11-04T08:58:50;14.38;;;11.85;;
9409;SDS011;4744;52.576;13.568;2022-11-04T09:01:17;14.98;;;13.05;;
9409;SDS011;4744;52.576;13.568;2022-11-04T09:03:45;13.13;;;11.82;;
9409;SDS011;4744;52.576;13.568;2022-11-04T09:06:14;12.88;;;11.55;;
9409;SDS011;4744;52.576;13.568;2022-11-04T09:08:45;14.20;;;12.73;;
9409;SDS011;4744;52.576;13.568;2022-11-04T09:11:12;14.70;;;11.55;;
9409;SDS011;4744;52.576;13.568;2022-11-04T09:13:40;12.85;;;10.68;;
9409;SDS011;4744;52.576;13.568;2022-11-04T09:16:08;12.30;;;11.00;;
9409;SDS011;4744;52.576;13.568;2022-11-04T09:18:37;13.45;;;10.98;;
9409;SDS011;4744;52.576;13.568;2022-11-04T09:21:05;12.88;;;10.73;;
9409;SDS011;4744;52.576;13.568;2022-11-04T09:23:32;11.98;;;10.38;;
9409;SDS011;4744;52.576;13.568;2022-11-04T09:26:03;12.88;;;10.48;;
9409;SDS011;4744;52.576;13.568;2022-11-04T09:28:32;10.85;;;9.80;;
9409;SDS011;4744;52.576;13.568;2022-11-04T09:30:58;13.98;;;10.02;;
9409;SDS011;4744;52.576;13.568;2022-11-04T09:33:29;11.52;;;10.25;;
9409;SDS011;4744;52.576;13.568;2022-11-04T09:35:57;11.27;;;9.13;;
9409;SDS011;4744;52.576;13.568;2022-11-04T09:38:24;13.23;;;9.75;;
9409;SDS011;4744;52.576;13.568;2022-11-04T09:40:51;11.55;;;9.27;;
9409;SDS011;4744;52.576;13.568;2022-11-04T09:43:24;13.63;;;9.40;;
9409;SDS011;4744;52.576;13.568;2022-11-04T09:45:58;9.20;;;8.30;;
9409;SDS011;4744;52.576;13.568;2022-11-04T09:48:28;10.27;;;8.45;;
9409;SDS011;4744;52.576;13.568;2022-11-04T09:50:58;10.35;;;8.75;;
9409;SDS011;4744;52.576;13.568;2022-11-04T09:53:27;8.63;;;7.78;;
9409;SDS011;4744;52.576;13.568;2022-11-04T09:56:00;9.27;;;7.97;;
9409;SDS011;4744;52.576;13.568;2022-11-04T09:58:32;8.23;;;7.43;;
9409;SDS011;4744;52.576;13.568;2022-11-04T10:01:03;7.35;;;6.65;;
9409;SDS011;4744;52.576;13.568;2022-11-04T10:03:40;9.27;;;6.80;;
9409;SDS011;4744;52.576;13.568;2022-11-04T10:06:19;7.97;;;7.00;;
9409;SDS011;4744;52.576;13.568;2022-11-04T10:08:58;7.50;;;6.70;;
9409;SDS011;4744;52.576;13.568;2022-11-04T10:11:39;7.82;;;6.72;;
9409;SDS011;4744;52.576;13.568;2022-11-04T10:14:24;7.43;;;6.72;;
9409;SDS011;4744;52.576;13.568;2022-11-04T10:17:01;7.75;;;6.95;;
9409;SDS011;4744;52.576;13.568;2022-11-04T10:19:39;8.23;;;7.43;;
9409;SDS011;4744;52.576;13.568;2022-11-04T10:22:18;7.72;;;6.80;;
9409;SDS011;4744;52.576;13.568;2022-11-04T10:24:54;7.32;;;6.53;;
9409;SDS011;4744;52.576;13.568;2022-11-04T10:27:29;8.95;;;6.55;;
9409;SDS011;4744;52.576;13.568;2022-11-04T10:30:02;9.05;;;7.13;;
9409;SDS011;4744;52.576;13.568;2022-11-04T10:32:34;7.20;;;6.50;;
9409;SDS011;4744;52.576;13.568;2022-11-04T10:35:09;7.13;;;6.43;;
9409;SDS011;4744;52.576;13.568;2022-11-04T10:37:47;6.78;;;6.07;;
9409;SDS011;4744;52.576;13.568;2022-11-04T10:40:19;7.32;;;5.70;;
9409;SDS011;4744;52.576;13.568;2022-11-04T10:42:50;7.15;;;6.43;;
9409;SDS011;4744;52.576;13.568;2022-11-04T10:45:19;9.50;;;6.68;;
9409;SDS011;4744;52.576;13.568;2022-11-04T10:47:49;6.97;;;6.32;;
9409;SDS011;4744;52.576;13.568;2022-11-04T10:50:25;7.28;;;6.57;;
9409;SDS011;4744;52.576;13.568;2022-11-04T10:53:01;6.78;;;6.10;;
9409;SDS011;4744;52.576;13.568;2022-11-04T10:55:40;7.28;;;6.57;;
9409;SDS011;4744;52.576;13.568;2022-11-04T10:58:14;7.65;;;6.95;;
9409;SDS011;4744;52.576;13.568;2022-11-04T11:00:46;8.63;;;6.57;;
9409;SDS011;4744;52.576;13.568;2022-11-04T11:03:23;8.13;;;7.18;;
9409;SDS011;4744;52.576;13.568;2022-11-04T11:05:52;7.57;;;6.85;;
9409;SDS011;4744;52.576;13.568;2022-11-04T11:08:34;8.05;;;7.25;;
9409;SDS011;4744;52.576;13.568;2022-11-04T11:11:02;7.30;;;6.53;;
9409;SDS011;4744;52.576;13.568;2022-11-04T11:13:33;6.60;;;5.90;;
9409;SDS011;4744;52.576;13.568;2022-11-04T11:16:07;7.70;;;6.53;;
9409;SDS011;4744;52.576;13.568;2022-11-04T11:18:37;6.93;;;6.22;;
9409;SDS011;4744;52.576;13.568;2022-11-04T11:21:07;7.18;;;6.38;;
9409;SDS011;4744;52.576;13.568;2022-11-04T11:23:37;7.40;;;5.82;;
9409;SDS011;4744;52.576;13.568;2022-11-04T11:26:06;6.10;;;5.55;;
9409;SDS011;4744;52.576;13.568;2022-11-04T11:28:34;7.25;;;6.57;;
9409;SDS011;4744;52.576;13.568;2022-11-04T11:31:04;7.20;;;6.50;;
9409;SDS011;4744;52.576;13.568;2022-11-04T11:33:39;6.93;;;6.22;;
9409;SDS011;4744;52.576;13.568;2022-11-04T11:36:14;6.07;;;5.55;;
9409;SDS011;4744;52.576;13.568;2022-11-04T11:38:50;5.55;;;5.00;;
9409;SDS011;4744;52.576;13.568;2022-11-04T11:41:19;6.30;;;5.65;;
9409;SDS011;4744;52.576;13.568;2022-11-04T11:43:53;7.18;;;6.50;;
9409;SDS011;4744;52.576;13.568;2022-11-04T11:46:23;6.32;;;5.72;;
9409;SDS011;4744;52.576;13.568;2022-11-04T11:48:53;7.57;;;5.50;;
9409;SDS011;4744;52.576;13.568;2022-11-04T11:51:26;6.00;;;5.50;;
9409;SDS011;4744;52.576;13.568;2022-11-04T11:54:00;6.00;;;5.30;;
9409;SDS011;4744;52.576;13.568;2022-11-04T11:56:38;6.80;;;6.20;;
9409;SDS011;4744;52.576;13.568;2022-11-04T11:59:12;6.32;;;5.72;;
9409;SDS011;4744;52.576;13.568;2022-11-04T12:01:47;6.43;;;5.82;;
9409;SDS011;4744;52.576;13.568;2022-11-04T12:04:21;8.50;;;6.32;;
9409;SDS011;4744;52.576;13.568;2022-11-04T12:06:50;5.55;;;5.05;;
9409;SDS011;4744;52.576;13.568;2022-11-04T12:09:29;7.30;;;6.43;;
9409;SDS011;4744;52.576;13.568;2022-11-04T12:15:03;7.20;;;6.47;;
9409;SDS011;4744;52.576;13.568;2022-11-04T12:17:54;7.70;;;6.90;;
9409;SDS011;4744;52.576;13.568;2022-11-04T12:20:36;7.40;;;6.78;;
9409;SDS011;4744;52.576;13.568;2022-11-04T12:23:14;8.05;;;6.78;;
9409;SDS011;4744;52.576;13.568;2022-11-04T12:25:50;8.18;;;7.45;;
9409;SDS011;4744;52.576;13.568;2022-11-04T12:28:28;7.88;;;7.10;;
9409;SDS011;4744;52.576;13.568;2022-11-04T12:31:09;7.43;;;6.78;;
9409;SDS011;4744;52.576;13.568;2022-11-04T12:33:47;7.72;;;7.07;;
9409;SDS011;4744;52.576;13.568;2022-11-04T12:36:25;8.18;;;6.78;;
9409;SDS011;4744;52.576;13.568;2022-11-04T12:39:04;7.63;;;6.97;;
9409;SDS011;4744;52.576;13.568;2022-11-04T12:41:50;7.78;;;6.82;;
9409;SDS011;4744;52.576;13.568;2022-11-04T12:44:27;6.57;;;6.03;;
9409;SDS011;4744;52.576;13.568;2022-11-04T12:47:03;7.22;;;6.63;;
9409;SDS011;4744;52.576;13.568;2022-11-04T12:49:42;8.32;;;7.53;;
9409;SDS011;4744;52.576;13.568;2022-11-04T12:52:25;8.13;;;7.30;;
9409;SDS011;4744;52.576;13.568;2022-11-04T12:55:04;7.82;;;6.80;;
9409;SDS011;4744;52.576;13.568;2022-11-04T12:57:44;7.60;;;6.90;;
9409;SDS011;4744;52.576;13.568;2022-11-04T13:00:16;8.20;;;7.40;;
9409;SDS011;4744;52.576;13.568;2022-11-04T13:02:49;7.20;;;6.60;;
9409;SDS011;4744;52.576;13.568;2022-11-04T13:05:32;7.60;;;7.00;;
9409;SDS011;4744;52.576;13.568;2022-11-04T13:08:08;7.47;;;6.78;;
9409;SDS011;4744;52.576;13.568;2022-11-04T13:10:45;8.45;;;7.63;;
9409;SDS011;4744;52.576;13.568;2022-11-04T13:13:17;8.02;;;7.32;;
9409;SDS011;4744;52.576;13.568;2022-11-04T13:15:48;7.93;;;7.22;;
9409;SDS011;4744;52.576;13.568;2022-11-04T13:18:19;7.95;;;7.25;;
9409;SDS011;4744;52.576;13.568;2022-11-04T13:20:51;7.88;;;7.22;;
9409;SDS011;4744;52.576;13.568;2022-11-04T13:23:24;7.55;;;6.85;;
9409;SDS011;4744;52.576;13.568;2022-11-04T13:25:55;8.13;;;7.03;;
9409;SDS011;4744;52.576;13.568;2022-11-04T13:28:23;7.65;;;6.95;;
9409;SDS011;4744;52.576;13.568;2022-11-04T13:30:53;7.70;;;7.00;;
9409;SDS011;4744;52.576;13.568;2022-11-04T13:33:29;7.72;;;7.03;;
9409;SDS011;4744;52.576;13.568;2022-11-04T13:36:06;6.60;;;6.10;;
9409;SDS011;4744;52.576;13.568;2022-11-04T13:38:42;6.30;;;5.80;;
9409;SDS011;4744;52.576;13.568;2022-11-04T13:41:21;6.68;;;6.07;;
9409;SDS011;4744;52.576;13.568;2022-11-04T13:44:04;8.10;;;7.32;;
9409;SDS011;4744;52.576;13.568;2022-11-04T13:46:38;7.72;;;7.03;;
9409;SDS011;4744;52.576;13.568;2022-11-04T13:49:11;7.65;;;6.95;;
9409;SDS011;4744;52.576;13.568;2022-11-04T13:51:59;7.95;;;7.25;;
9409;SDS011;4744;52.576;13.568;2022-11-04T13:54:31;8.10;;;7.30;;
9409;SDS011;4744;52.576;13.568;2022-11-04T13:57:07;7.65;;;7.05;;
9409;SDS011;4744;52.576;13.568;2022-11-04T13:59:37;7.50;;;6.82;;
9409;SDS011;4744;52.576;13.568;2022-11-04T14:08:17;9.15;;;8.30;;
9409;SDS011;4744;52.576;13.568;2022-11-04T14:10:47;7.45;;;6.43;;
9409;SDS011;4744;52.576;13.568;2022-11-04T14:16:38;7.50;;;6.90;;
9409;SDS011;4744;52.576;13.568;2022-11-04T14:22:31;6.53;;;5.95;;
9409;SDS011;4744;52.576;13.568;2022-11-04T14:25:03;7.53;;;6.85;;
9409;SDS011;4744;52.576;13.568;2022-11-04T14:27:46;7.82;;;7.13;;
9409;SDS011;4744;52.576;13.568;2022-11-04T14:33:19;9.55;;;8.65;;
9409;SDS011;4744;52.576;13.568;2022-11-04T14:36:22;9.90;;;9.00;;
9409;SDS011;4744;52.576;13.568;2022-11-04T14:38:57;10.27;;;9.27;;
9409;SDS011;4744;52.576;13.568;2022-11-04T14:41:48;9.98;;;9.05;;
9409;SDS011;4744;52.576;13.568;2022-11-04T14:44:27;9.90;;;9.10;;
9409;SDS011;4744;52.576;13.568;2022-11-04T14:46:56;10.32;;;9.25;;
9409;SDS011;4744;52.576;13.568;2022-11-04T14:52:14;9.77;;;8.90;;
9409;SDS011;4744;52.576;13.568;2022-11-04T14:54:46;9.57;;;8.77;;
9409;SDS011;4744;52.576;13.568;2022-11-04T14:57:16;8.65;;;7.57;;
9409;SDS011;4744;52.576;13.568;2022-11-04T14:59:45;7.47;;;6.88;;
9409;SDS011;4744;52.576;13.568;2022-11-04T15:02:14;7.68;;;6.97;;
9409;SDS011;4744;52.576;13.568;2022-11-04T15:04:48;8.05;;;7.35;;
9409;SDS011;4744;52.576;13.568;2022-11-04T15:07:22;8.55;;;7.85;;
9409;SDS011;4744;52.576;13.568;2022-11-04T15:09:51;9.73;;;8.93;;
9409;SDS011;4744;52.576;13.568;2022-11-04T15:12:20;11.38;;;10.38;;
9409;SDS011;4744;52.576;13.568;2022-11-04T15:15:27;9.10;;;8.30;;
9409;SDS011;4744;52.576;13.568;2022-11-04T15:17:56;8.00;;;7.40;;
9409;SDS011;4744;52.576;13.568;2022-11-04T15:20:26;9.85;;;9.05;;
9409;SDS011;4744;52.576;13.568;2022-11-04T15:22:55;8.18;;;7.47;;
9409;SDS011;4744;52.576;13.568;2022-11-04T15:25:24;8.27;;;7.57;;
9409;SDS011;4744;52.576;13.568;2022-11-04T15:27:52;7.80;;;7.10;;
9409;SDS011;4744;52.576;13.568;2022-11-04T15:30:20;7.88;;;7.28;;
9409;SDS011;4744;52.576;13.568;2022-11-04T15:32:56;8.20;;;7.50;;
9409;SDS011;4744;52.576;13.568;2022-11-04T15:35:25;9.52;;;8.60;;
9409;SDS011;4744;52.576;13.568;2022-11-04T15:37:53;9.82;;;8.93;;
9409;SDS011;4744;52.576;13.568;2022-11-04T15:40:21;9.77;;;8.98;;
9409;SDS011;4744;52.576;13.568;2022-11-04T15:42:49;9.75;;;8.80;;
9409;SDS011;4744;52.576;13.568;2022-11-04T15:45:27;10.65;;;9.60;;